createdAt,value
2018-12-08T00:02:21.134Z,3.10
2018-12-08T00:04:49.366Z,3.40
2018-12-08T00:07:17.554Z,3.57
2018-12-08T00:09:45.847Z,2.70
2018-12-08T00:12:14.045Z,2.40
2018-12-08T00:14:42.197Z,2.60
2018-12-08T00:17:10.470Z,2.70
2018-12-08T00:19:38.628Z,2.70
2018-12-08T00:22:06.780Z,2.73
2018-12-08T00:24:35.024Z,2.23
2018-12-08T00:27:03.172Z,2.70
2018-12-08T00:29:31.324Z,2.47
2018-12-08T00:32:00.238Z,2.37
2018-12-08T00:34:28.371Z,3.53
2018-12-08T00:36:56.595Z,2.93
2018-12-08T00:39:24.820Z,2.50
2018-12-08T00:41:52.956Z,2.77
2018-12-08T00:44:21.153Z,2.33
2018-12-08T00:46:49.412Z,3.20
2018-12-08T00:49:17.554Z,2.33
2018-12-08T00:51:45.870Z,2.90
2018-12-08T00:54:14.066Z,2.80
2018-12-08T00:56:42.303Z,2.53
2018-12-08T00:59:10.575Z,2.27
2018-12-08T01:01:38.799Z,2.60
2018-12-08T01:04:06.962Z,2.00
2018-12-08T01:06:35.096Z,2.33
2018-12-08T01:09:05.370Z,2.83
2018-12-08T01:11:33.502Z,2.10
2018-12-08T01:14:01.754Z,2.37
2018-12-08T01:16:29.890Z,2.30
2018-12-08T01:18:58.595Z,2.20
2018-12-08T01:21:26.816Z,1.80
2018-12-08T01:23:55.082Z,2.67
2018-12-08T01:26:23.297Z,2.00
2018-12-08T01:28:51.453Z,2.10
2018-12-08T01:31:20.854Z,2.37
2018-12-08T01:33:49.000Z,2.17
2018-12-08T01:36:17.167Z,1.97
2018-12-08T01:38:45.381Z,2.07
2018-12-08T01:41:13.749Z,2.20
2018-12-08T01:43:42.107Z,2.33
2018-12-08T01:46:10.442Z,2.23
2018-12-08T01:48:38.664Z,2.30
2018-12-08T01:51:06.802Z,2.50
2018-12-08T01:53:35.109Z,2.23
2018-12-08T01:56:03.735Z,2.10
2018-12-08T01:58:31.943Z,1.97
2018-12-08T02:01:00.152Z,2.10
2018-12-08T02:03:28.285Z,2.20
2018-12-08T02:05:56.443Z,2.43
2018-12-08T02:08:24.721Z,2.27
2018-12-08T02:10:52.853Z,2.60
2018-12-08T02:13:21.018Z,2.30
2018-12-08T02:15:49.206Z,2.60
2018-12-08T02:18:17.575Z,2.60
2018-12-08T02:20:45.769Z,2.67
2018-12-08T02:23:14.037Z,2.17
2018-12-08T02:25:42.223Z,2.20
2018-12-08T02:28:11.499Z,2.97
2018-12-08T02:30:39.714Z,2.40
2018-12-08T02:33:08.216Z,2.60
2018-12-08T02:35:36.420Z,3.13
2018-12-08T02:38:04.620Z,2.40
2018-12-08T02:40:32.822Z,2.70
2018-12-08T02:43:01.015Z,2.43
2018-12-08T02:45:29.171Z,2.77
2018-12-08T02:47:57.366Z,2.47
2018-12-08T02:50:25.654Z,2.50
2018-12-08T02:52:54.018Z,2.30
2018-12-08T02:55:23.107Z,2.20
2018-12-08T02:57:52.126Z,2.60
2018-12-08T03:00:20.259Z,2.10
2018-12-08T03:02:48.576Z,2.17
2018-12-08T03:05:16.709Z,3.23
2018-12-08T03:07:45.031Z,2.30
2018-12-08T03:10:14.364Z,1.97
2018-12-08T03:12:42.497Z,2.70
2018-12-08T03:15:10.657Z,2.03
2018-12-08T03:17:38.952Z,3.27
2018-12-08T03:20:07.190Z,2.00
2018-12-08T03:22:35.415Z,3.50
2018-12-08T03:25:04.202Z,2.13
2018-12-08T03:27:32.472Z,2.20
2018-12-08T03:30:00.642Z,2.80
2018-12-08T03:32:28.882Z,2.40
2018-12-08T03:34:57.086Z,2.50
2018-12-08T03:37:25.325Z,2.10
2018-12-08T03:39:53.562Z,2.13
2018-12-08T03:42:21.822Z,2.30
2018-12-08T03:44:50.127Z,2.60
2018-12-08T03:47:19.625Z,2.27
2018-12-08T03:49:47.840Z,2.70
2018-12-08T03:52:16.240Z,2.20
2018-12-08T03:54:44.459Z,2.37
2018-12-08T03:57:13.283Z,2.67
2018-12-08T03:59:41.483Z,2.40
2018-12-08T04:02:09.676Z,2.37
2018-12-08T04:04:37.819Z,2.57
2018-12-08T04:07:06.044Z,2.50
2018-12-08T04:09:34.275Z,2.20
2018-12-08T04:12:02.480Z,2.43
2018-12-08T04:14:30.713Z,2.40
2018-12-08T04:16:59.968Z,2.53
2018-12-08T04:19:28.326Z,2.70
2018-12-08T04:21:56.650Z,2.33
2018-12-08T04:24:24.846Z,2.10
2018-12-08T04:26:53.097Z,2.70
2018-12-08T04:29:21.320Z,2.27
2018-12-08T04:31:49.622Z,2.67
2018-12-08T04:34:17.779Z,2.50
2018-12-08T04:36:47.080Z,2.70
2018-12-08T04:39:15.440Z,2.60
2018-12-08T04:41:43.937Z,2.87
2018-12-08T04:44:12.192Z,2.40
2018-12-08T04:46:40.497Z,2.70
2018-12-08T04:49:09.317Z,2.60
2018-12-08T04:51:37.750Z,3.50
2018-12-08T04:54:05.882Z,2.73
2018-12-08T04:56:34.068Z,2.80
2018-12-08T04:59:02.227Z,2.77
2018-12-08T05:01:30.522Z,2.23
2018-12-08T05:03:58.821Z,3.50
2018-12-08T05:06:27.047Z,2.60
2018-12-08T05:08:55.230Z,2.43
2018-12-08T05:11:23.482Z,2.27
2018-12-08T05:13:52.291Z,2.57
2018-12-08T05:16:20.573Z,2.87
2018-12-08T05:18:48.702Z,2.73
2018-12-08T05:21:16.873Z,2.77
2018-12-08T05:23:45.015Z,2.90
2018-12-08T05:26:13.161Z,2.40
2018-12-08T05:28:41.286Z,2.63
2018-12-08T05:31:09.434Z,2.87
2018-12-08T05:33:37.651Z,3.03
2018-12-08T05:36:05.815Z,2.33
2018-12-08T05:38:33.944Z,2.80
2018-12-08T05:41:02.161Z,2.70
2018-12-08T05:43:30.362Z,3.17
2018-12-08T05:45:58.568Z,2.77
2018-12-08T05:48:26.794Z,3.03
2018-12-08T05:50:54.991Z,3.33
2018-12-08T05:53:23.285Z,3.10
2018-12-08T05:55:51.613Z,4.03
2018-12-08T05:58:19.834Z,3.53
2018-12-08T06:00:48.044Z,3.07
2018-12-08T06:03:16.168Z,3.17
2018-12-08T06:05:44.407Z,3.20
2018-12-08T06:08:12.538Z,2.87
2018-12-08T06:10:40.945Z,3.20
2018-12-08T06:13:09.823Z,2.90
2018-12-08T06:15:38.328Z,3.17
2018-12-08T06:18:06.606Z,3.80
2018-12-08T06:20:34.742Z,3.50
2018-12-08T06:23:02.889Z,3.17
2018-12-08T06:25:31.154Z,2.97
2018-12-08T06:28:04.439Z,3.47
2018-12-08T06:30:32.593Z,3.30
2018-12-08T06:33:00.718Z,4.53
2018-12-08T06:35:28.914Z,4.20
2018-12-08T06:37:57.159Z,3.60
2018-12-08T06:40:29.224Z,4.17
2018-12-08T06:42:55.737Z,3.43
2018-12-08T06:45:23.891Z,2.90
2018-12-08T06:47:52.203Z,3.80
2018-12-08T06:50:20.334Z,3.77
2018-12-08T06:52:48.513Z,4.10
2018-12-08T06:55:16.780Z,3.80
2018-12-08T06:57:45.078Z,3.30
2018-12-08T07:00:13.415Z,3.37
2018-12-08T07:02:42.434Z,4.60
2018-12-08T07:05:10.715Z,3.37
2018-12-08T07:07:38.895Z,3.47
2018-12-08T07:10:07.354Z,3.17
2018-12-08T07:12:35.663Z,3.67
2018-12-08T07:15:04.571Z,3.43
2018-12-08T07:17:32.769Z,3.40
2018-12-08T07:20:00.905Z,3.43
2018-12-08T07:22:29.185Z,4.90
2018-12-08T07:24:57.322Z,3.43
2018-12-08T07:27:25.553Z,3.60
2018-12-08T07:29:53.682Z,4.53
2018-12-08T07:32:21.815Z,4.60
2018-12-08T07:34:49.955Z,4.07
2018-12-08T07:37:18.162Z,3.80
2018-12-08T07:39:46.352Z,3.67
2018-12-08T07:42:14.588Z,4.23
2018-12-08T07:44:42.753Z,4.73
2018-12-08T07:47:10.884Z,3.70
2018-12-08T07:49:39.183Z,3.67
2018-12-08T07:52:07.526Z,3.80
2018-12-08T07:54:35.696Z,4.20
2018-12-08T07:57:03.987Z,3.40
2018-12-08T07:59:32.113Z,3.97
2018-12-08T08:02:00.261Z,4.57
2018-12-08T08:04:28.537Z,3.67
2018-12-08T08:06:56.748Z,3.60
2018-12-08T08:09:24.869Z,3.60
2018-12-08T08:11:53.110Z,4.00
2018-12-08T08:14:21.255Z,3.03
2018-12-08T08:16:49.410Z,3.77
2018-12-08T08:19:17.546Z,4.07
2018-12-08T08:21:45.696Z,4.07
2018-12-08T08:24:13.831Z,3.30
2018-12-08T08:26:41.951Z,3.43
2018-12-08T08:29:10.267Z,3.17
2018-12-08T08:31:38.408Z,3.60
2018-12-08T08:34:06.594Z,3.40
2018-12-08T08:36:34.838Z,3.37
2018-12-08T08:39:04.192Z,4.53
2018-12-08T08:41:32.415Z,3.63
2018-12-08T08:44:00.580Z,3.97
2018-12-08T08:46:28.750Z,2.87
2018-12-08T08:48:57.144Z,3.03
2018-12-08T08:51:25.418Z,3.80
2018-12-08T08:53:53.543Z,3.13
2018-12-08T08:56:22.184Z,3.83
2018-12-08T08:58:50.306Z,3.53
2018-12-08T09:01:18.480Z,3.17
2018-12-08T09:03:46.609Z,3.10
2018-12-08T09:06:14.868Z,3.57
2018-12-08T09:08:43.104Z,3.03
2018-12-08T09:11:11.238Z,2.60
2018-12-08T09:13:39.404Z,2.87
2018-12-08T09:16:08.133Z,3.93
2018-12-08T09:18:36.307Z,3.40
2018-12-08T09:21:04.526Z,3.60
2018-12-08T09:23:32.809Z,3.37
2018-12-08T09:26:00.989Z,3.93
2018-12-08T09:28:29.133Z,4.10
2018-12-08T09:30:57.469Z,3.87
2018-12-08T09:33:25.671Z,3.87
2018-12-08T09:35:53.829Z,3.20
2018-12-08T09:38:21.971Z,4.13
2018-12-08T09:40:50.129Z,5.03
2018-12-08T09:43:18.501Z,3.67
2018-12-08T09:45:46.741Z,3.70
2018-12-08T09:48:15.159Z,4.03
2018-12-08T09:50:43.354Z,4.67
2018-12-08T09:53:13.686Z,5.17
2018-12-08T09:55:41.837Z,3.83
2018-12-08T09:58:10.230Z,3.20
2018-12-08T10:00:38.664Z,4.03
2018-12-08T10:03:06.804Z,4.03
2018-12-08T10:05:34.963Z,4.30
2018-12-08T10:08:03.112Z,5.50
2018-12-08T10:10:31.251Z,3.80
2018-12-08T10:12:59.394Z,4.30
2018-12-08T10:15:27.542Z,4.33
2018-12-08T10:17:55.672Z,4.27
2018-12-08T10:20:23.882Z,3.30
2018-12-08T10:22:52.807Z,3.80
2018-12-08T10:25:20.953Z,3.70
2018-12-08T10:27:49.106Z,4.47
2018-12-08T10:30:17.350Z,3.40
2018-12-08T10:32:45.558Z,6.67
2018-12-08T10:35:13.743Z,3.90
2018-12-08T10:37:42.039Z,3.40
2018-12-08T10:40:10.260Z,3.90
2018-12-08T10:42:38.533Z,4.07
2018-12-08T10:45:07.537Z,3.50
2018-12-08T10:47:35.818Z,3.43
2018-12-08T10:50:05.744Z,4.07
2018-12-08T10:52:35.351Z,4.03
2018-12-08T10:55:03.749Z,3.47
2018-12-08T10:57:36.208Z,4.20
2018-12-08T11:00:08.149Z,3.87
2018-12-08T11:02:38.412Z,4.10
2018-12-08T11:05:07.041Z,3.83
2018-12-08T11:07:35.177Z,4.03
2018-12-08T11:10:04.163Z,4.00
2018-12-08T11:12:32.334Z,3.57
2018-12-08T11:15:00.979Z,3.93
2018-12-08T11:17:29.447Z,3.87
2018-12-08T11:19:57.753Z,4.20
2018-12-08T11:22:26.027Z,3.63
2018-12-08T11:24:54.306Z,4.40
2018-12-08T11:27:22.449Z,3.87
2018-12-08T11:29:50.665Z,3.70
2018-12-08T11:32:18.806Z,3.83
2018-12-08T11:34:46.929Z,3.00
2018-12-08T11:37:15.074Z,3.47
2018-12-08T11:39:43.837Z,4.13
2018-12-08T11:42:12.074Z,3.97
2018-12-08T11:44:40.544Z,4.20
2018-12-08T11:47:08.779Z,3.40
2018-12-08T11:49:36.919Z,3.30
2018-12-08T11:52:05.145Z,3.47
2018-12-08T11:54:33.395Z,2.97
2018-12-08T11:57:01.627Z,3.40
2018-12-08T11:59:29.750Z,3.90
2018-12-08T12:01:57.976Z,3.50
2018-12-08T12:04:26.207Z,3.23
2018-12-08T12:06:54.403Z,3.67
2018-12-08T12:09:22.558Z,4.17
2018-12-08T12:11:50.841Z,3.57
2018-12-08T12:14:23.012Z,3.53
2018-12-08T12:16:51.274Z,3.13
2018-12-08T12:19:19.430Z,3.40
2018-12-08T12:21:47.580Z,3.80
2018-12-08T12:24:15.787Z,3.77
2018-12-08T12:26:43.997Z,3.40
2018-12-08T12:29:12.161Z,4.30
2018-12-08T12:31:40.309Z,3.20
2018-12-08T12:34:08.454Z,3.13
2018-12-08T12:36:36.608Z,3.90
2018-12-08T12:39:05.540Z,3.20
2018-12-08T12:41:34.586Z,3.53
2018-12-08T12:44:02.740Z,3.50
2018-12-08T12:46:30.938Z,3.87
2018-12-08T12:48:59.092Z,3.77
2018-12-08T12:51:27.359Z,3.13
2018-12-08T12:53:55.633Z,3.60
2018-12-08T12:56:23.807Z,3.67
2018-12-08T12:58:52.030Z,2.97
2018-12-08T13:01:20.177Z,3.60
2018-12-08T13:03:48.332Z,3.63
2018-12-08T13:06:16.482Z,3.50
2018-12-08T13:08:45.023Z,3.37
2018-12-08T13:11:13.158Z,3.77
2018-12-08T13:13:41.484Z,3.73
2018-12-08T13:16:09.777Z,4.30
2018-12-08T13:18:37.929Z,3.00
2018-12-08T13:21:06.065Z,3.50
2018-12-08T13:23:34.231Z,3.30
2018-12-08T13:26:02.384Z,4.30
2018-12-08T13:28:30.813Z,3.80
2018-12-08T13:30:58.954Z,3.80
2018-12-08T13:33:27.150Z,3.20
2018-12-08T13:35:56.009Z,3.43
2018-12-08T13:38:24.138Z,3.53
2018-12-08T13:40:52.374Z,4.33
2018-12-08T13:43:20.509Z,3.50
2018-12-08T13:45:48.649Z,3.90
2018-12-08T13:48:17.190Z,3.67
2018-12-08T13:50:45.614Z,3.43
2018-12-08T13:53:14.842Z,4.00
2018-12-08T13:55:43.166Z,3.97
2018-12-08T13:58:11.360Z,3.60
2018-12-08T14:00:39.478Z,3.70
2018-12-08T14:03:07.606Z,3.57
2018-12-08T14:05:35.781Z,3.37
2018-12-08T14:08:03.971Z,3.83
2018-12-08T14:10:32.105Z,4.10
2018-12-08T14:13:00.771Z,5.03
2018-12-08T14:15:29.126Z,3.57
2018-12-08T14:17:57.435Z,3.63
2018-12-08T14:20:26.546Z,4.60
2018-12-08T14:22:54.757Z,3.13
2018-12-08T14:25:23.001Z,4.00
2018-12-08T14:27:51.325Z,3.50
2018-12-08T14:30:19.473Z,3.00
2018-12-08T14:32:47.704Z,3.87
2018-12-08T14:35:15.842Z,3.80
2018-12-08T14:37:43.958Z,2.90
2018-12-08T14:40:12.160Z,3.40
2018-12-08T14:42:40.359Z,3.50
2018-12-08T14:45:08.784Z,3.87
2018-12-08T14:47:36.930Z,3.03
2018-12-08T14:50:06.060Z,3.00
2018-12-08T14:52:34.200Z,3.60
2018-12-08T14:55:02.368Z,3.20
2018-12-08T14:57:30.499Z,4.20
2018-12-08T14:59:58.627Z,2.93
2018-12-08T15:02:26.831Z,4.80
2018-12-08T15:04:54.963Z,2.80
2018-12-08T15:07:23.191Z,3.23
2018-12-08T15:09:51.495Z,3.40
2018-12-08T15:12:19.648Z,3.40
2018-12-08T15:14:47.773Z,3.13
2018-12-08T15:17:15.909Z,3.70
2018-12-08T15:19:44.062Z,3.83
2018-12-08T15:22:12.360Z,3.70
2018-12-08T15:24:40.646Z,3.10
2018-12-08T15:27:08.943Z,3.37
2018-12-08T15:29:37.655Z,3.67
2018-12-08T15:32:06.253Z,2.80
2018-12-08T15:34:34.409Z,3.20
2018-12-08T15:37:02.554Z,3.20
2018-12-08T15:39:30.700Z,3.30
2018-12-08T15:41:58.834Z,3.40
2018-12-08T15:44:27.070Z,3.47
2018-12-08T15:46:55.282Z,3.47
2018-12-08T15:49:23.517Z,2.83
2018-12-08T15:51:55.741Z,2.80
2018-12-08T15:54:24.070Z,3.40
2018-12-08T15:56:52.261Z,2.90
2018-12-08T15:59:20.494Z,2.90
2018-12-08T16:01:48.713Z,3.70
2018-12-08T16:04:17.049Z,3.13
2018-12-08T16:06:45.196Z,3.80
2018-12-08T16:09:13.335Z,3.23
2018-12-08T16:11:41.724Z,2.93
2018-12-08T16:14:09.997Z,4.07
2018-12-08T16:16:38.137Z,3.33
2018-12-08T16:19:06.401Z,3.00
2018-12-08T16:21:34.690Z,3.37
2018-12-08T16:24:02.834Z,2.70
2018-12-08T16:26:30.995Z,2.60
2018-12-08T16:28:59.150Z,3.20
2018-12-08T16:31:27.294Z,3.13
2018-12-08T16:33:55.547Z,3.37
2018-12-08T16:36:23.731Z,2.87
2018-12-08T16:38:51.867Z,2.80
2018-12-08T16:41:20.163Z,2.77
2018-12-08T16:43:48.902Z,2.63
2018-12-08T16:46:17.075Z,3.20
2018-12-08T16:48:45.231Z,3.40
2018-12-08T16:51:13.397Z,3.07
2018-12-08T16:53:41.650Z,2.73
2018-12-08T16:56:09.858Z,3.00
2018-12-08T16:58:38.002Z,2.63
2018-12-08T17:01:06.343Z,3.40
2018-12-08T17:03:34.510Z,2.90
2018-12-08T17:06:02.724Z,2.37
2018-12-08T17:08:30.867Z,2.53
2018-12-08T17:10:59.015Z,2.40
2018-12-08T17:13:27.155Z,2.60
2018-12-08T17:15:55.290Z,2.33
2018-12-08T17:18:23.443Z,2.30
2018-12-08T17:20:51.614Z,2.60
2018-12-08T17:23:19.736Z,2.73
2018-12-08T17:25:48.791Z,2.73
2018-12-08T17:28:16.926Z,2.00
2018-12-08T17:30:45.053Z,2.50
2018-12-08T17:33:13.222Z,2.50
2018-12-08T17:35:41.452Z,2.60
2018-12-08T17:38:09.591Z,2.20
2018-12-08T17:40:37.736Z,2.27
2018-12-08T17:43:05.872Z,2.90
2018-12-08T17:45:34.077Z,2.70
2018-12-08T17:48:02.339Z,2.70
2018-12-08T17:50:30.572Z,2.63
2018-12-08T17:52:58.714Z,2.80
2018-12-08T17:55:27.000Z,3.50
2018-12-08T17:57:55.333Z,3.60
2018-12-08T18:00:23.662Z,2.77
2018-12-08T18:02:51.806Z,2.50
2018-12-08T18:05:19.948Z,2.73
2018-12-08T18:07:48.086Z,2.83
2018-12-08T18:10:16.313Z,3.47
2018-12-08T18:12:44.630Z,2.90
2018-12-08T18:15:12.754Z,3.10
2018-12-08T18:17:40.906Z,3.20
2018-12-08T18:20:09.046Z,3.10
2018-12-08T18:22:37.200Z,2.80
2018-12-08T18:25:05.439Z,3.30
2018-12-08T18:27:33.727Z,3.63
2018-12-08T18:30:01.927Z,3.50
2018-12-08T18:32:30.128Z,2.70
2018-12-08T18:34:58.276Z,3.50
2018-12-08T18:37:26.409Z,3.83
2018-12-08T18:39:55.436Z,3.20
2018-12-08T18:42:23.615Z,4.30
2018-12-08T18:44:51.834Z,3.70
2018-12-08T18:47:20.001Z,3.93
2018-12-08T18:49:48.148Z,3.50
2018-12-08T18:52:16.309Z,3.90
2018-12-08T18:54:44.450Z,4.60
2018-12-08T18:57:12.584Z,5.10
2018-12-08T18:59:40.744Z,4.00
2018-12-08T19:02:09.026Z,4.20
2018-12-08T19:04:37.156Z,4.33
2018-12-08T19:07:05.319Z,4.43
2018-12-08T19:09:33.494Z,3.83
2018-12-08T19:12:01.736Z,4.23
2018-12-08T19:14:29.896Z,4.33
2018-12-08T19:16:58.239Z,4.37
2018-12-08T19:19:26.366Z,4.80
2018-12-08T19:21:55.391Z,4.27
2018-12-08T19:24:23.564Z,3.77
2018-12-08T19:26:51.699Z,4.30
2018-12-08T19:29:19.838Z,3.97
2018-12-08T19:31:47.977Z,6.33
2018-12-08T19:34:16.107Z,4.33
2018-12-08T19:36:44.326Z,4.80
2018-12-08T19:39:12.497Z,3.63
2018-12-08T19:41:40.637Z,3.83
2018-12-08T19:44:08.773Z,5.27
2018-12-08T19:46:36.907Z,3.43
2018-12-08T19:49:05.130Z,4.00
2018-12-08T19:51:33.270Z,3.87
2018-12-08T19:54:01.415Z,3.10
2018-12-08T19:56:29.548Z,3.80
2018-12-08T19:58:57.685Z,3.93
2018-12-08T20:01:25.830Z,2.67
2018-12-08T20:03:53.980Z,3.20
2018-12-08T20:06:22.177Z,3.17
2018-12-08T20:08:50.342Z,3.30
2018-12-08T20:11:18.549Z,3.40
2018-12-08T20:13:46.760Z,3.80
2018-12-08T20:16:14.907Z,4.23
2018-12-08T20:18:43.099Z,2.77
2018-12-08T20:21:11.244Z,2.73
2018-12-08T20:23:39.458Z,3.30
2018-12-08T20:26:07.596Z,2.40
2018-12-08T20:28:35.735Z,1.60
2018-12-08T20:31:03.939Z,2.00
2018-12-08T20:33:32.062Z,1.97
2018-12-08T20:36:00.193Z,1.73
2018-12-08T20:38:28.399Z,1.83
2018-12-08T20:40:56.537Z,1.80
2018-12-08T20:43:25.048Z,1.70
2018-12-08T20:45:53.289Z,1.73
2018-12-08T20:48:21.419Z,1.57
2018-12-08T20:50:49.609Z,1.90
2018-12-08T20:53:17.975Z,3.60
2018-12-08T20:55:46.177Z,2.20
2018-12-08T20:58:14.331Z,2.30
2018-12-08T21:00:42.780Z,1.87
2018-12-08T21:03:11.515Z,1.40
2018-12-08T21:05:39.640Z,2.00
2018-12-08T21:08:07.867Z,1.50
2018-12-08T21:10:36.083Z,1.83
2018-12-08T21:13:04.251Z,2.30
2018-12-08T21:15:32.386Z,1.73
2018-12-08T21:18:00.671Z,1.43
2018-12-08T21:20:28.810Z,1.70
2018-12-08T21:22:57.027Z,2.83
2018-12-08T21:25:25.802Z,1.70
2018-12-08T21:27:53.938Z,1.50
2018-12-08T21:30:22.842Z,1.67
2018-12-08T21:32:51.003Z,1.80
2018-12-08T21:35:19.125Z,1.60
2018-12-08T21:37:47.354Z,1.77
2018-12-08T21:40:20.444Z,1.80
2018-12-08T21:42:50.106Z,1.80
2018-12-08T21:45:18.478Z,1.57
2018-12-08T21:47:46.762Z,1.50
2018-12-08T21:50:14.909Z,1.87
2018-12-08T21:52:43.050Z,1.90
2018-12-08T21:55:11.180Z,1.73
2018-12-08T21:57:39.332Z,2.10
2018-12-08T22:00:08.381Z,2.20
2018-12-08T22:02:36.657Z,2.03
2018-12-08T22:05:05.066Z,1.87
2018-12-08T22:07:33.253Z,1.50
2018-12-08T22:10:01.392Z,1.90
2018-12-08T22:12:29.595Z,1.50
2018-12-08T22:14:59.211Z,1.30
2018-12-08T22:17:27.509Z,1.97
2018-12-08T22:19:55.685Z,1.13
2018-12-08T22:22:23.818Z,1.10
2018-12-08T22:24:51.952Z,1.50
2018-12-08T22:27:20.090Z,1.03
2018-12-08T22:29:48.446Z,1.30
2018-12-08T22:32:16.590Z,1.10
2018-12-08T22:34:44.887Z,1.53
2018-12-08T22:37:13.001Z,1.10
2018-12-08T22:39:41.422Z,1.47
2018-12-08T22:42:09.571Z,1.13
2018-12-08T22:44:37.872Z,1.27
2018-12-08T22:47:06.123Z,1.07
2018-12-08T22:49:34.449Z,1.20
2018-12-08T22:52:03.583Z,1.03
2018-12-08T22:54:32.976Z,1.27
2018-12-08T22:57:01.112Z,1.00
2018-12-08T22:59:29.246Z,1.17
2018-12-08T23:01:57.546Z,1.30
2018-12-08T23:04:25.745Z,1.30
2018-12-08T23:07:00.240Z,1.20
2018-12-08T23:09:28.422Z,1.60
2018-12-08T23:11:56.606Z,1.60
2018-12-08T23:14:24.870Z,1.53
2018-12-08T23:16:53.379Z,1.83
2018-12-08T23:19:21.522Z,2.00
2018-12-08T23:21:49.653Z,2.40
2018-12-08T23:24:17.838Z,2.70
2018-12-08T23:26:46.121Z,3.03
2018-12-08T23:29:14.267Z,3.50
2018-12-08T23:31:42.458Z,5.63
2018-12-08T23:34:10.659Z,4.60
2018-12-08T23:36:39.005Z,5.40
2018-12-08T23:39:07.295Z,5.20
2018-12-08T23:41:35.509Z,5.50
2018-12-08T23:44:03.832Z,5.30
2018-12-08T23:46:31.951Z,4.70
2018-12-08T23:49:00.143Z,4.47
2018-12-08T23:51:28.458Z,4.97
2018-12-08T23:53:56.610Z,4.33
2018-12-08T23:56:24.875Z,5.73
2018-12-08T23:58:53.741Z,4.47
